createdAt,value
2023-05-01T00:02:21.682Z,98496.34
2023-05-01T00:05:31.868Z,98496.19
2023-05-01T00:08:37.782Z,98494.09
2023-05-01T00:11:44.582Z,98495.09
2023-05-01T00:14:50.483Z,98489.81
2023-05-01T00:17:57.617Z,98482.69
2023-05-01T00:21:06.686Z,98495.38
2023-05-01T00:24:13.478Z,98489.50
2023-05-01T00:27:19.646Z,98493.25
2023-05-01T00:30:28.057Z,98491.88
2023-05-01T00:33:34.052Z,98487.00
2023-05-01T00:36:43.599Z,98484.78
2023-05-01T00:39:49.594Z,98488.13
2023-05-01T00:42:56.397Z,98488.53
2023-05-01T00:46:02.596Z,98486.59
2023-05-01T00:49:09.365Z,98488.66
2023-05-01T00:52:18.090Z,98480.06
2023-05-01T00:55:26.101Z,98474.81
2023-05-01T00:58:33.046Z,98480.94
2023-05-01T01:01:42.264Z,98494.97
2023-05-01T01:04:50.324Z,98483.69
2023-05-01T01:08:14.361Z,98478.69
2023-05-01T01:11:37.281Z,98479.69
2023-05-01T01:14:58.563Z,98477.00
2023-05-01T01:18:19.696Z,98475.34
2023-05-01T01:21:36.847Z,98466.03
2023-05-01T01:25:36.645Z,98465.03
2023-05-01T01:29:35.193Z,98464.31
2023-05-01T01:33:28.187Z,98466.03
2023-05-01T01:36:47.287Z,98465.63
2023-05-01T01:40:05.674Z,98457.88
2023-05-01T01:43:21.328Z,98463.75
2023-05-01T01:46:30.036Z,98457.09
2023-05-01T01:49:44.026Z,98457.13
2023-05-01T01:52:56.648Z,98445.59
2023-05-01T01:56:07.873Z,98448.78
2023-05-01T01:59:17.005Z,98442.25
2023-05-01T02:02:27.529Z,98443.63
2023-05-01T02:05:37.688Z,98439.34
2023-05-01T02:08:52.071Z,98438.22
2023-05-01T02:12:01.831Z,98435.59
2023-05-01T02:15:12.988Z,98437.00
2023-05-01T02:18:21.016Z,98427.25
2023-05-01T02:21:31.433Z,98428.09
2023-05-01T02:24:43.424Z,98426.16
2023-05-01T02:27:59.014Z,98425.16
2023-05-01T02:31:05.576Z,98422.66
2023-05-01T02:34:12.634Z,98424.03
2023-05-01T02:37:19.591Z,98421.53
2023-05-01T02:40:32.288Z,98409.03
2023-05-01T02:43:41.941Z,98415.56
2023-05-01T02:46:53.759Z,98405.44
2023-05-01T02:50:03.480Z,98412.25
2023-05-01T02:53:11.928Z,98408.59
2023-05-01T02:56:33.226Z,98411.25
2023-05-01T02:59:40.671Z,98414.03
2023-05-01T03:02:47.660Z,98417.53
2023-05-01T03:05:54.899Z,98412.91
2023-05-01T03:09:00.840Z,98418.19
2023-05-01T03:12:10.278Z,98421.53
2023-05-01T03:15:16.690Z,98409.31
2023-05-01T03:18:26.532Z,98414.00
2023-05-01T03:21:33.248Z,98410.84
2023-05-01T03:24:40.064Z,98417.38
2023-05-01T03:27:49.114Z,98412.38
2023-05-01T03:30:57.473Z,98404.03
2023-05-01T03:34:03.665Z,98407.63
2023-05-01T03:37:10.542Z,98403.31
2023-05-01T03:40:17.246Z,98404.44
2023-05-01T03:43:45.482Z,98403.19
2023-05-01T03:47:11.805Z,98391.66
2023-05-01T03:50:21.561Z,98392.34
2023-05-01T03:53:29.867Z,98397.25
2023-05-01T03:56:38.936Z,98387.94
2023-05-01T03:59:48.380Z,98392.91
2023-05-01T04:02:57.216Z,98393.19
2023-05-01T04:06:04.313Z,98388.75
2023-05-01T04:09:11.416Z,98393.34
2023-05-01T04:12:17.412Z,98385.13
2023-05-01T04:15:26.729Z,98383.59
2023-05-01T04:18:32.761Z,98383.66
2023-05-01T04:21:39.819Z,98380.28
2023-05-01T04:24:46.007Z,98377.28
2023-05-01T04:27:53.285Z,98364.50
2023-05-01T04:31:02.160Z,98371.97
2023-05-01T04:34:09.107Z,98375.75
2023-05-01T04:37:18.225Z,98381.34
2023-05-01T04:40:25.435Z,98385.25
2023-05-01T04:43:31.521Z,98387.09
2023-05-01T04:46:42.083Z,98380.56
2023-05-01T04:49:51.008Z,98389.50
2023-05-01T04:52:57.925Z,98382.94
2023-05-01T04:56:04.251Z,98386.81
2023-05-01T04:59:12.728Z,98393.34
2023-05-01T05:02:21.788Z,98390.09
2023-05-01T05:05:28.723Z,98389.50
2023-05-01T05:08:34.990Z,98392.84
2023-05-01T05:11:48.667Z,98390.84
2023-05-01T05:15:02.240Z,98384.06
2023-05-01T05:18:12.965Z,98383.59
2023-05-01T05:21:19.637Z,98386.00
2023-05-01T05:24:31.180Z,98390.44
2023-05-01T05:27:38.533Z,98387.75
2023-05-01T05:30:45.302Z,98388.22
2023-05-01T05:34:11.786Z,98385.94
2023-05-01T05:37:18.784Z,98384.06
2023-05-01T05:40:30.470Z,98392.66
2023-05-01T05:43:37.824Z,98378.91
2023-05-01T05:46:46.164Z,98380.25
2023-05-01T05:50:01.100Z,98376.38
2023-05-01T05:53:07.119Z,98373.88
2023-05-01T05:56:14.260Z,98377.91
2023-05-01T05:59:21.795Z,98378.72
2023-05-01T06:02:28.753Z,98378.78
2023-05-01T06:05:37.820Z,98380.06
2023-05-01T06:08:46.545Z,98376.63
2023-05-01T06:11:52.710Z,98378.78
2023-05-01T06:14:59.557Z,98390.03
2023-05-01T06:18:06.427Z,98389.25
2023-05-01T06:21:16.826Z,98390.31
2023-05-01T06:24:27.815Z,98375.56
2023-05-01T06:27:37.587Z,98389.34
2023-05-01T06:30:43.969Z,98392.16
2023-05-01T06:33:51.671Z,98391.47
2023-05-01T06:37:39.077Z,98386.41
2023-05-01T06:40:48.368Z,98386.47
2023-05-01T06:43:54.502Z,98384.56
2023-05-01T06:47:02.157Z,98383.72
2023-05-01T06:50:10.443Z,98381.31
2023-05-01T06:53:20.302Z,98368.38
2023-05-01T06:56:26.515Z,98375.41
2023-05-01T06:59:34.531Z,98374.59
2023-05-01T07:02:41.388Z,98374.03
2023-05-01T07:05:48.661Z,98372.19
2023-05-01T07:08:57.423Z,98379.19
2023-05-01T07:12:04.260Z,98362.91
2023-05-01T07:15:18.348Z,98374.59
2023-05-01T07:18:29.737Z,98372.69
2023-05-01T07:21:35.756Z,98370.09
2023-05-01T07:24:51.565Z,98376.41
2023-05-01T07:27:58.681Z,98367.97
2023-05-01T07:31:05.522Z,98365.09
2023-05-01T07:34:11.882Z,98370.81
2023-05-01T07:37:19.103Z,98368.00
2023-05-01T07:40:31.940Z,98368.59
2023-05-01T07:43:40.986Z,98371.97
2023-05-01T07:46:47.544Z,98365.19
2023-05-01T07:49:54.512Z,98365.00
2023-05-01T07:53:00.741Z,98363.63
2023-05-01T07:56:13.207Z,98355.47
2023-05-01T07:59:19.598Z,98361.84
2023-05-01T08:02:29.789Z,98356.88
2023-05-01T08:05:35.961Z,98355.66
2023-05-01T08:08:42.934Z,98351.78
2023-05-01T08:11:52.481Z,98355.97
2023-05-01T08:14:59.566Z,98358.28
2023-05-01T08:18:05.819Z,98357.66
2023-05-01T08:21:13.906Z,98365.72
2023-05-01T08:24:19.957Z,98354.16
2023-05-01T08:27:29.838Z,98359.94
2023-05-01T08:30:38.090Z,98358.75
2023-05-01T08:33:45.080Z,98350.81
2023-05-01T08:36:50.978Z,98350.13
2023-05-01T08:40:08.588Z,98345.66
2023-05-01T08:43:17.952Z,98360.41
2023-05-01T08:46:41.590Z,98333.94
2023-05-01T08:49:51.126Z,98344.69
2023-05-01T08:53:02.476Z,98340.84
2023-05-01T08:56:16.391Z,98341.72
2023-05-01T08:59:30.548Z,98339.66
2023-05-01T09:02:41.322Z,98340.84
2023-05-01T09:05:53.356Z,98338.72
2023-05-01T09:08:59.345Z,98344.44
2023-05-01T09:12:21.484Z,98329.25
2023-05-01T09:15:31.849Z,98315.59
2023-05-01T09:18:40.443Z,98315.88
2023-05-01T09:21:46.788Z,98309.97
2023-05-01T09:24:54.919Z,98310.94
2023-05-01T09:28:08.522Z,98307.53
2023-05-01T09:31:29.382Z,98304.72
2023-05-01T09:34:35.420Z,98306.31
2023-05-01T09:37:47.547Z,98298.69
2023-05-01T09:40:56.955Z,98299.34
2023-05-01T09:44:04.524Z,98300.38
2023-05-01T09:47:16.609Z,98308.34
2023-05-01T09:50:36.790Z,98300.06
2023-05-01T09:53:44.122Z,98295.41
2023-05-01T09:56:52.826Z,98295.06
2023-05-01T10:00:10.528Z,98298.56
2023-05-01T10:03:20.077Z,98293.72
2023-05-01T10:06:32.290Z,98288.69
2023-05-01T10:09:39.019Z,98290.56
2023-05-01T10:12:45.043Z,98287.94
2023-05-01T10:15:52.444Z,98282.91
2023-05-01T10:19:04.675Z,98276.03
2023-05-01T10:22:12.676Z,98279.78
2023-05-01T10:25:21.102Z,98276.72
2023-05-01T10:28:28.970Z,98271.00
2023-05-01T10:31:36.215Z,98270.47
2023-05-01T10:34:55.163Z,98265.97
2023-05-01T10:38:06.382Z,98263.66
2023-05-01T10:41:14.267Z,98261.56
2023-05-01T10:44:25.038Z,98258.59
2023-05-01T10:47:50.538Z,98253.28
2023-05-01T10:51:20.704Z,98250.63
2023-05-01T10:54:31.011Z,98244.19
2023-05-01T10:57:47.488Z,98247.13
2023-05-01T11:01:35.886Z,98246.88
2023-05-01T11:04:57.338Z,98235.81
2023-05-01T11:08:37.884Z,98231.63
2023-05-01T11:11:53.905Z,98228.94
2023-05-01T11:15:10.123Z,98221.09
2023-05-01T11:18:16.304Z,98214.53
2023-05-01T11:21:34.374Z,98210.00
2023-05-01T11:24:43.676Z,98209.66
2023-05-01T11:27:53.258Z,98194.63
2023-05-01T11:30:59.527Z,98198.34
2023-05-01T11:34:07.715Z,98187.88
2023-05-01T11:37:13.914Z,98190.94
2023-05-01T11:40:29.713Z,98182.53
2023-05-01T11:43:36.047Z,98185.69
2023-05-01T11:46:42.987Z,98181.91
2023-05-01T11:49:56.087Z,98175.59
2023-05-01T11:53:03.244Z,98167.63
2023-05-01T11:56:27.038Z,98164.16
2023-05-01T11:59:34.711Z,98157.72
2023-05-01T12:02:41.269Z,98165.63
2023-05-01T12:05:48.995Z,98154.00
2023-05-01T12:08:55.717Z,98151.78
2023-05-01T12:12:06.045Z,98152.38
2023-05-01T12:15:14.419Z,98141.88
2023-05-01T12:18:22.918Z,98138.69
2023-05-01T12:21:36.987Z,98139.13
2023-05-01T12:24:54.495Z,98136.34
2023-05-01T12:28:20.172Z,98128.09
2023-05-01T12:31:28.012Z,98123.47
2023-05-01T12:34:34.745Z,98132.53
2023-05-01T12:37:41.923Z,98126.09
2023-05-01T12:40:57.043Z,98124.78
2023-05-01T12:44:18.133Z,98110.81
2023-05-01T12:47:26.614Z,98112.84
2023-05-01T12:50:40.009Z,98104.91
2023-05-01T12:53:49.463Z,98110.59
2023-05-01T12:56:58.748Z,98099.63
2023-05-01T13:00:09.908Z,98096.16
2023-05-01T13:03:19.063Z,98088.97
2023-05-01T13:06:25.491Z,98083.56
2023-05-01T13:09:33.901Z,98076.41
2023-05-01T13:12:48.505Z,98078.03
2023-05-01T13:16:09.407Z,98072.34
2023-05-01T13:19:17.011Z,98071.38
2023-05-01T13:22:33.431Z,98058.06
2023-05-01T13:25:39.510Z,98063.00
2023-05-01T13:28:48.699Z,98078.75
2023-05-01T13:32:06.738Z,98064.34
2023-05-01T13:35:13.991Z,98056.50
2023-05-01T13:38:23.731Z,98048.91
2023-05-01T13:41:31.585Z,98050.66
2023-05-01T13:44:49.294Z,98039.28
2023-05-01T13:47:58.813Z,98041.16
2023-05-01T13:51:05.041Z,98028.00
2023-05-01T13:54:12.874Z,98037.94
2023-05-01T13:57:26.721Z,98028.94
2023-05-01T14:00:33.535Z,98023.91
2023-05-01T14:03:46.645Z,98015.66
2023-05-01T14:06:53.844Z,98017.38
2023-05-01T14:10:05.204Z,98028.13
2023-05-01T14:13:12.237Z,98016.00
2023-05-01T14:16:28.072Z,98012.56
2023-05-01T14:19:37.798Z,98010.81
2023-05-01T14:22:51.969Z,98004.75
2023-05-01T14:25:58.762Z,97998.50
2023-05-01T14:29:04.781Z,97999.28
2023-05-01T14:32:13.604Z,97994.41
2023-05-01T14:35:25.127Z,98002.00
2023-05-01T14:38:39.417Z,97983.56
2023-05-01T14:41:46.713Z,97973.88
2023-05-01T14:44:58.198Z,97980.66
2023-05-01T14:48:05.585Z,97987.41
2023-05-01T14:51:22.926Z,97984.59
2023-05-01T14:54:31.084Z,97972.41
2023-05-01T14:57:38.018Z,97970.94
2023-05-01T15:00:44.240Z,97971.53
2023-05-01T15:03:51.270Z,97971.16
2023-05-01T15:06:59.889Z,97969.53
2023-05-01T15:10:12.277Z,97969.19
2023-05-01T15:13:18.281Z,97967.41
2023-05-01T15:16:25.245Z,97956.88
2023-05-01T15:19:31.240Z,97958.09
2023-05-01T15:22:41.142Z,97959.59
2023-05-01T15:25:48.205Z,97945.22
2023-05-01T15:28:55.237Z,97951.75
2023-05-01T15:32:12.080Z,97949.00
2023-05-01T15:35:21.748Z,97945.53
2023-05-01T15:38:30.528Z,97942.38
2023-05-01T15:41:37.604Z,97932.59
2023-05-01T15:44:43.559Z,97936.59
2023-05-01T15:47:50.611Z,97944.13
2023-05-01T15:50:56.630Z,97939.00
2023-05-01T15:54:06.611Z,97934.31
2023-05-01T15:57:13.312Z,97941.16
2023-05-01T16:00:28.837Z,97942.03
2023-05-01T16:03:39.172Z,97936.31
2023-05-01T16:06:46.240Z,97940.50
2023-05-01T16:09:56.163Z,97934.75
2023-05-01T16:13:03.184Z,97936.66
2023-05-01T16:16:14.699Z,97934.91
2023-05-01T16:19:28.880Z,97936.88
2023-05-01T16:22:36.389Z,97931.28
2023-05-01T16:25:51.687Z,97930.06
2023-05-01T16:29:08.247Z,97922.88
2023-05-01T16:32:15.409Z,97930.63
2023-05-01T16:35:21.830Z,97926.06
2023-05-01T16:38:30.244Z,97926.75
2023-05-01T16:41:48.258Z,97924.72
2023-05-01T16:44:56.896Z,97924.63
2023-05-01T16:48:03.143Z,97926.13
2023-05-01T16:51:14.878Z,97922.50
2023-05-01T16:54:32.381Z,97924.25
2023-05-01T16:57:44.132Z,97919.34
2023-05-01T17:00:50.702Z,97911.72
2023-05-01T17:04:23.865Z,97920.16
2023-05-01T17:07:31.474Z,97915.97
2023-05-01T17:10:38.707Z,97919.00
2023-05-01T17:13:47.829Z,97919.81
2023-05-01T17:16:58.965Z,97914.88
2023-05-01T17:20:11.752Z,97909.78
2023-05-01T17:23:19.144Z,97913.16
2023-05-01T17:26:28.643Z,97915.03
2023-05-01T17:29:39.512Z,97909.97
2023-05-01T17:32:46.642Z,97910.28
2023-05-01T17:35:55.637Z,97917.66
2023-05-01T17:39:01.864Z,97912.81
2023-05-01T17:42:15.756Z,97906.97
2023-05-01T17:45:31.918Z,97919.34
2023-05-01T17:48:38.716Z,97914.25
2023-05-01T17:51:46.858Z,97913.75
2023-05-01T17:54:53.796Z,97906.19
2023-05-01T17:58:00.160Z,97909.53
2023-05-01T18:01:10.569Z,97908.00
2023-05-01T18:04:23.608Z,97917.59
2023-05-01T18:07:30.905Z,97914.53
2023-05-01T18:10:42.132Z,97914.81
2023-05-01T18:13:49.176Z,97911.03
2023-05-01T18:16:58.317Z,97910.31
2023-05-01T18:20:05.690Z,97906.66
2023-05-01T18:23:11.696Z,97911.94
2023-05-01T18:26:19.535Z,97921.06
2023-05-01T18:29:25.685Z,97922.75
2023-05-01T18:32:46.936Z,97922.41
2023-05-01T18:35:54.523Z,97920.84
2023-05-01T18:39:02.252Z,97921.50
2023-05-01T18:42:13.768Z,97920.50
2023-05-01T18:45:20.775Z,97922.19
2023-05-01T18:48:29.840Z,97920.19
2023-05-01T18:51:37.153Z,97925.56
2023-05-01T18:54:54.825Z,97914.03
2023-05-01T18:58:02.343Z,97920.88
2023-05-01T19:01:08.422Z,97918.19
2023-05-01T19:04:20.393Z,97923.13
2023-05-01T19:07:29.561Z,97917.19
2023-05-01T19:10:37.471Z,97916.56
2023-05-01T19:13:43.598Z,97920.09
2023-05-01T19:16:50.601Z,97916.38
2023-05-01T19:19:59.536Z,97910.44
2023-05-01T19:23:06.776Z,97910.00
2023-05-01T19:26:14.124Z,97914.56
2023-05-01T19:29:31.275Z,97911.44
2023-05-01T19:32:37.429Z,97912.28
2023-05-01T19:35:47.203Z,97907.16
2023-05-01T19:38:56.608Z,97906.34
2023-05-01T19:42:03.723Z,97902.03
2023-05-01T19:45:23.919Z,97906.97
2023-05-01T19:48:31.241Z,97908.63
2023-05-01T19:51:44.372Z,97920.16
2023-05-01T19:54:51.319Z,97921.63
2023-05-01T19:57:58.138Z,97917.09
2023-05-01T20:01:08.687Z,97914.41
2023-05-01T20:04:15.117Z,97915.47
2023-05-01T20:07:24.725Z,97913.38
2023-05-01T20:10:37.179Z,97919.97
2023-05-01T20:13:45.694Z,97921.75
2023-05-01T20:16:53.434Z,97914.94
2023-05-01T20:20:00.679Z,97920.25
2023-05-01T20:23:17.868Z,97914.00
2023-05-01T20:26:26.528Z,97912.53
2023-05-01T20:29:32.752Z,97913.69
2023-05-01T20:32:42.631Z,97918.41
2023-05-01T20:35:48.779Z,97922.53
2023-05-01T20:38:58.251Z,97925.38
2023-05-01T20:42:05.546Z,97923.69
2023-05-01T20:45:16.127Z,97931.06
2023-05-01T20:48:22.266Z,97934.03
2023-05-01T20:51:32.385Z,97939.00
2023-05-01T20:54:43.336Z,97941.22
2023-05-01T20:57:50.432Z,97938.16
2023-05-01T21:00:58.281Z,97938.88
2023-05-01T21:04:07.230Z,97940.53
2023-05-01T21:07:13.457Z,97940.09
2023-05-01T21:10:22.948Z,97939.47
2023-05-01T21:13:30.875Z,97943.34
2023-05-01T21:16:37.956Z,97937.47
2023-05-01T21:19:48.547Z,97944.84
2023-05-01T21:22:55.454Z,97951.97
2023-05-01T21:26:04.931Z,97943.88
2023-05-01T21:29:12.547Z,97946.84
2023-05-01T21:32:20.487Z,97946.66
2023-05-01T21:35:30.136Z,97950.97
2023-05-01T21:38:38.849Z,97945.66
2023-05-01T21:41:55.079Z,97954.44
2023-05-01T21:45:05.461Z,97953.94
2023-05-01T21:48:16.800Z,97954.19
2023-05-01T21:51:29.199Z,97960.34
2023-05-01T21:54:37.047Z,97959.88
2023-05-01T21:57:45.750Z,97952.88
2023-05-01T22:00:53.580Z,97956.13
2023-05-01T22:04:00.478Z,97958.56
2023-05-01T22:07:09.297Z,97963.88
2023-05-01T22:10:23.336Z,97961.72
2023-05-01T22:13:36.207Z,97951.88
2023-05-01T22:16:42.221Z,97961.72
2023-05-01T22:19:49.047Z,97966.34
2023-05-01T22:22:55.170Z,97960.41
2023-05-01T22:26:02.858Z,97962.03
2023-05-01T22:29:11.479Z,97968.31
2023-05-01T22:32:18.577Z,97970.22
2023-05-01T22:35:24.531Z,97965.25
2023-05-01T22:38:31.686Z,97962.84
2023-05-01T22:41:37.550Z,97967.13
2023-05-01T22:44:50.176Z,97961.59
2023-05-01T22:47:56.670Z,97970.03
2023-05-01T22:51:03.726Z,97966.56
2023-05-01T22:54:09.650Z,97966.97
2023-05-01T22:57:16.782Z,97971.00
2023-05-01T23:00:25.664Z,97968.88
2023-05-01T23:03:35.733Z,97970.81
2023-05-01T23:06:43.533Z,97967.69
2023-05-01T23:09:50.337Z,97967.50
2023-05-01T23:12:56.246Z,97964.19
2023-05-01T23:16:11.513Z,97962.72
2023-05-01T23:19:25.975Z,97969.16
2023-05-01T23:22:38.425Z,97963.16
2023-05-01T23:25:53.428Z,97970.22
2023-05-01T23:29:00.596Z,97960.84
2023-05-01T23:32:14.121Z,97961.00
2023-05-01T23:35:26.690Z,97956.09
2023-05-01T23:38:33.537Z,97958.59
2023-05-01T23:41:54.342Z,97960.56
2023-05-01T23:45:01.132Z,97953.44
2023-05-01T23:48:16.153Z,97947.75
2023-05-01T23:51:22.342Z,97952.13
2023-05-01T23:54:29.433Z,97944.59
2023-05-01T23:57:35.493Z,97941.22
